sensor_id;sensor_type;location;lat;lon;timestamp;temperature;humidity
35244;DHT22;37916;52.160;21.066;2022-09-17T00:07:46;9.70;79.30
35244;DHT22;37916;52.160;21.066;2022-09-17T00:17:47;10.00;77.20
35244;DHT22;37916;52.160;21.066;2022-09-17T00:27:52;10.20;76.70
35244;DHT22;37916;52.160;21.066;2022-09-17T00:37:53;10.10;76.60
35244;DHT22;37916;52.160;21.066;2022-09-17T00:47:59;9.90;77.10
35244;DHT22;37916;52.160;21.066;2022-09-17T00:58:01;9.70;77.90
35244;DHT22;37916;52.160;21.066;2022-09-17T01:39:20;9.50;77.80
35244;DHT22;37916;52.160;21.066;2022-09-17T01:49:17;9.30;79.20
35244;DHT22;37916;52.160;21.066;2022-09-17T01:59:26;9.10;78.30
35244;DHT22;37916;52.160;21.066;2022-09-17T02:09:38;9.00;78.60
35244;DHT22;37916;52.160;21.066;2022-09-17T02:19:41;8.90;79.90
35244;DHT22;37916;52.160;21.066;2022-09-17T02:29:43;8.70;79.90
35244;DHT22;37916;52.160;21.066;2022-09-17T02:39:44;8.60;80.10
35244;DHT22;37916;52.160;21.066;2022-09-17T03:00:37;8.50;80.70
35244;DHT22;37916;52.160;21.066;2022-09-17T03:10:39;8.40;80.80
35244;DHT22;37916;52.160;21.066;2022-09-17T03:20:39;8.40;82.00
35244;DHT22;37916;52.160;21.066;2022-09-17T03:30:42;8.40;81.90
35244;DHT22;37916;52.160;21.066;2022-09-17T03:40:43;8.30;81.60
35244;DHT22;37916;52.160;21.066;2022-09-17T03:50:44;8.20;81.90
35244;DHT22;37916;52.160;21.066;2022-09-17T04:00:46;8.10;82.00
35244;DHT22;37916;52.160;21.066;2022-09-17T04:10:52;8.10;82.30
35244;DHT22;37916;52.160;21.066;2022-09-17T04:20:53;8.10;82.90
35244;DHT22;37916;52.160;21.066;2022-09-17T04:30:54;8.10;82.30
35244;DHT22;37916;52.160;21.066;2022-09-17T04:40:54;8.10;81.70
35244;DHT22;37916;52.160;21.066;2022-09-17T04:50:56;8.20;82.40
35244;DHT22;37916;52.160;21.066;2022-09-17T05:00:57;8.50;83.20
35244;DHT22;37916;52.160;21.066;2022-09-17T05:10:58;8.80;82.30
35244;DHT22;37916;52.160;21.066;2022-09-17T05:20:59;9.50;80.30
35244;DHT22;37916;52.160;21.066;2022-09-17T05:31:00;10.20;78.20
35244;DHT22;37916;52.160;21.066;2022-09-17T05:41:05;10.90;76.50
35244;DHT22;37916;52.160;21.066;2022-09-17T05:51:06;12.10;74.60
35244;DHT22;37916;52.160;21.066;2022-09-17T06:01:06;13.10;72.00
35244;DHT22;37916;52.160;21.066;2022-09-17T06:11:07;13.90;69.90
35244;DHT22;37916;52.160;21.066;2022-09-17T06:21:08;14.40;68.60
35244;DHT22;37916;52.160;21.066;2022-09-17T06:31:11;15.40;66.30
35244;DHT22;37916;52.160;21.066;2022-09-17T06:41:11;16.60;63.20
35244;DHT22;37916;52.160;21.066;2022-09-17T06:51:13;17.80;61.70
35244;DHT22;37916;52.160;21.066;2022-09-17T07:01:15;19.20;58.30
35244;DHT22;37916;52.160;21.066;2022-09-17T07:11:16;19.50;56.60
35244;DHT22;37916;52.160;21.066;2022-09-17T07:21:17;19.70;55.50
35244;DHT22;37916;52.160;21.066;2022-09-17T07:31:18;19.30;55.10
35244;DHT22;37916;52.160;21.066;2022-09-17T07:41:18;18.00;57.00
35244;DHT22;37916;52.160;21.066;2022-09-17T07:51:24;17.30;57.90
35244;DHT22;37916;52.160;21.066;2022-09-17T08:01:25;17.10;58.20
35244;DHT22;37916;52.160;21.066;2022-09-17T08:11:28;16.70;59.60
35244;DHT22;37916;52.160;21.066;2022-09-17T08:21:29;17.50;57.00
35244;DHT22;37916;52.160;21.066;2022-09-17T08:31:30;17.50;57.20
35244;DHT22;37916;52.160;21.066;2022-09-17T08:42:08;17.20;58.10
35244;DHT22;37916;52.160;21.066;2022-09-17T09:03:16;16.70;60.70
35244;DHT22;37916;52.160;21.066;2022-09-17T09:13:23;17.90;57.80
35244;DHT22;37916;52.160;21.066;2022-09-17T09:33:53;16.90;59.50
35244;DHT22;37916;52.160;21.066;2022-09-17T09:44:04;16.90;60.50
35244;DHT22;37916;52.160;21.066;2022-09-17T09:54:24;17.70;57.80
35244;DHT22;37916;52.160;21.066;2022-09-17T10:04:28;17.80;57.80
35244;DHT22;37916;52.160;21.066;2022-09-17T10:14:34;18.60;55.40
35244;DHT22;37916;52.160;21.066;2022-09-17T10:24:37;18.30;55.90
35244;DHT22;37916;52.160;21.066;2022-09-17T10:34:39;18.10;56.50
35244;DHT22;37916;52.160;21.066;2022-09-17T10:54:58;17.20;58.30
35244;DHT22;37916;52.160;21.066;2022-09-17T11:25:56;17.50;60.40
35244;DHT22;37916;52.160;21.066;2022-09-17T11:36:04;18.20;57.90
35244;DHT22;37916;52.160;21.066;2022-09-17T11:56:26;16.80;62.80
35244;DHT22;37916;52.160;21.066;2022-09-17T12:06:41;17.30;62.90
35244;DHT22;37916;52.160;21.066;2022-09-17T12:16:44;18.10;59.70
35244;DHT22;37916;52.160;21.066;2022-09-17T13:08:37;18.30;57.30
35244;DHT22;37916;52.160;21.066;2022-09-17T13:18:59;17.90;57.90
35244;DHT22;37916;52.160;21.066;2022-09-17T13:29:01;17.30;59.10
35244;DHT22;37916;52.160;21.066;2022-09-17T13:39:02;16.80;61.00
35244;DHT22;37916;52.160;21.066;2022-09-17T13:49:13;16.60;61.60
35244;DHT22;37916;52.160;21.066;2022-09-17T13:59:24;16.60;62.30
35244;DHT22;37916;52.160;21.066;2022-09-17T14:09:50;16.40;62.80
35244;DHT22;37916;52.160;21.066;2022-09-17T14:19:51;16.00;64.90
35244;DHT22;37916;52.160;21.066;2022-09-17T14:30:02;15.80;67.10
35244;DHT22;37916;52.160;21.066;2022-09-17T14:40:08;15.80;66.70
35244;DHT22;37916;52.160;21.066;2022-09-17T14:50:24;16.20;66.00
35244;DHT22;37916;52.160;21.066;2022-09-17T15:00:35;16.20;65.70
35244;DHT22;37916;52.160;21.066;2022-09-17T15:10:58;16.10;66.00
35244;DHT22;37916;52.160;21.066;2022-09-17T15:21:03;16.40;64.90
35244;DHT22;37916;52.160;21.066;2022-09-17T15:31:08;16.30;65.30
35244;DHT22;37916;52.160;21.066;2022-09-17T15:41:30;16.20;65.20
35244;DHT22;37916;52.160;21.066;2022-09-17T15:51:35;15.60;66.90
35244;DHT22;37916;52.160;21.066;2022-09-17T16:01:49;15.40;67.20
35244;DHT22;37916;52.160;21.066;2022-09-17T16:11:53;15.20;68.40
35244;DHT22;37916;52.160;21.066;2022-09-17T16:21:53;14.90;68.80
35244;DHT22;37916;52.160;21.066;2022-09-17T16:31:54;14.60;69.10
35244;DHT22;37916;52.160;21.066;2022-09-17T16:41:55;14.00;70.40
35244;DHT22;37916;52.160;21.066;2022-09-17T16:51:55;13.60;71.30
35244;DHT22;37916;52.160;21.066;2022-09-17T17:01:56;13.20;71.70
35244;DHT22;37916;52.160;21.066;2022-09-17T17:11:57;12.90;73.40
35244;DHT22;37916;52.160;21.066;2022-09-17T17:21:57;12.60;73.50
35244;DHT22;37916;52.160;21.066;2022-09-17T17:31:58;12.20;74.60
35244;DHT22;37916;52.160;21.066;2022-09-17T17:42:02;11.90;75.60
35244;DHT22;37916;52.160;21.066;2022-09-17T17:52:04;11.60;76.40
35244;DHT22;37916;52.160;21.066;2022-09-17T18:02:06;11.40;77.30
35244;DHT22;37916;52.160;21.066;2022-09-17T18:12:07;11.30;79.00
35244;DHT22;37916;52.160;21.066;2022-09-17T18:22:08;11.20;78.40
35244;DHT22;37916;52.160;21.066;2022-09-17T18:32:09;11.10;78.60
35244;DHT22;37916;52.160;21.066;2022-09-17T18:42:09;11.10;80.40
35244;DHT22;37916;52.160;21.066;2022-09-17T18:52:10;11.00;80.40
35244;DHT22;37916;52.160;21.066;2022-09-17T19:02:11;11.00;80.60
35244;DHT22;37916;52.160;21.066;2022-09-17T19:12:12;10.90;81.30
35244;DHT22;37916;52.160;21.066;2022-09-17T19:32:23;10.70;81.00
35244;DHT22;37916;52.160;21.066;2022-09-17T19:42:24;10.70;82.40
35244;DHT22;37916;52.160;21.066;2022-09-17T19:52:25;11.00;80.30
35244;DHT22;37916;52.160;21.066;2022-09-17T20:02:31;11.10;78.90
35244;DHT22;37916;52.160;21.066;2022-09-17T20:12:31;10.90;79.00
35244;DHT22;37916;52.160;21.066;2022-09-17T20:22:32;10.80;79.90
35244;DHT22;37916;52.160;21.066;2022-09-17T20:32:40;10.70;82.60
35244;DHT22;37916;52.160;21.066;2022-09-17T20:42:41;10.70;82.50
35244;DHT22;37916;52.160;21.066;2022-09-17T20:52:41;10.60;83.10
35244;DHT22;37916;52.160;21.066;2022-09-17T21:02:45;10.60;83.00
35244;DHT22;37916;52.160;21.066;2022-09-17T21:12:50;10.60;82.40
35244;DHT22;37916;52.160;21.066;2022-09-17T21:22:50;10.50;82.60
35244;DHT22;37916;52.160;21.066;2022-09-17T21:32:51;10.40;82.70
35244;DHT22;37916;52.160;21.066;2022-09-17T21:42:55;10.30;84.10
35244;DHT22;37916;52.160;21.066;2022-09-17T21:52:57;10.30;84.80
35244;DHT22;37916;52.160;21.066;2022-09-17T22:02:57;10.20;85.10
35244;DHT22;37916;52.160;21.066;2022-09-17T22:12:58;10.30;85.10
35244;DHT22;37916;52.160;21.066;2022-09-17T22:23:00;10.20;84.90
35244;DHT22;37916;52.160;21.066;2022-09-17T22:33:00;10.20;85.00
35244;DHT22;37916;52.160;21.066;2022-09-17T22:43:01;10.20;84.40
35244;DHT22;37916;52.160;21.066;2022-09-17T22:53:02;10.20;85.20
35244;DHT22;37916;52.160;21.066;2022-09-17T23:03:03;10.20;85.10
35244;DHT22;37916;52.160;21.066;2022-09-17T23:13:03;10.10;84.40
35244;DHT22;37916;52.160;21.066;2022-09-17T23:23:04;10.10;84.60
35244;DHT22;37916;52.160;21.066;2022-09-17T23:33:05;10.10;85.10
35244;DHT22;37916;52.160;21.066;2022-09-17T23:43:05;10.10;84.90
35244;DHT22;37916;52.160;21.066;2022-09-17T23:53:06;10.20;84.70
